createdAt,value
2019-01-18T00:07:48.675Z,66.70
2019-01-18T00:12:48.320Z,66.10
2019-01-18T00:16:54.011Z,66.40
2019-01-18T00:20:59.695Z,67.20
2019-01-18T00:29:51.922Z,66.60
2019-01-18T00:33:57.588Z,66.50
2019-01-18T00:38:03.284Z,66.80
2019-01-18T00:42:09.046Z,67.20
2019-01-18T00:46:32.559Z,66.90
2019-01-18T00:50:38.246Z,66.60
2019-01-18T00:54:43.925Z,66.30
2019-01-18T00:58:49.611Z,66.60
2019-01-18T01:02:55.605Z,64.80
2019-01-18T01:07:01.300Z,66.40
2019-01-18T01:11:07.036Z,65.60
2019-01-18T01:15:16.420Z,64.50
2019-01-18T01:19:22.094Z,63.50
2019-01-18T01:23:27.808Z,62.60
2019-01-18T01:27:33.492Z,63.00
2019-01-18T01:31:39.159Z,63.00
2019-01-18T01:35:44.842Z,64.20
2019-01-18T01:39:50.527Z,63.60
2019-01-18T01:43:56.258Z,63.10
2019-01-18T01:48:01.993Z,63.10
2019-01-18T01:52:07.650Z,61.90
2019-01-18T01:56:13.339Z,63.40
2019-01-18T02:00:23.105Z,63.60
2019-01-18T02:04:28.783Z,66.40
2019-01-18T02:08:49.565Z,64.90
2019-01-18T02:12:55.320Z,65.30
2019-01-18T02:17:01.003Z,64.90
2019-01-18T02:21:06.827Z,65.80
2019-01-18T02:25:12.812Z,63.40
2019-01-18T02:29:18.473Z,65.00
2019-01-18T02:33:24.160Z,63.00
2019-01-18T02:37:29.957Z,61.30
2019-01-18T02:41:35.652Z,60.50
2019-01-18T02:45:41.336Z,59.80
2019-01-18T02:49:47.081Z,58.90
2019-01-18T02:53:54.603Z,58.20
2019-01-18T02:58:00.288Z,58.60
2019-01-18T03:02:06.359Z,57.80
2019-01-18T03:06:12.089Z,58.20
2019-01-18T03:10:21.984Z,57.50
2019-01-18T03:14:27.664Z,58.70
2019-01-18T03:18:33.351Z,61.70
2019-01-18T03:22:39.182Z,60.00
2019-01-18T03:26:44.903Z,59.50
2019-01-18T03:30:50.606Z,60.40
2019-01-18T03:34:56.268Z,60.40
2019-01-18T03:39:01.979Z,61.90
2019-01-18T03:43:07.669Z,61.80
2019-01-18T03:47:13.346Z,61.30
2019-01-18T03:51:19.031Z,60.70
2019-01-18T03:55:25.081Z,61.20
2019-01-18T03:59:30.773Z,61.50
2019-01-18T04:03:36.462Z,61.00
2019-01-18T04:18:48.406Z,60.40
2019-01-18T04:29:48.966Z,61.30
2019-01-18T04:34:47.810Z,60.70
2019-01-18T04:39:47.255Z,60.00
2019-01-18T05:03:50.678Z,58.70
2019-01-18T05:13:51.867Z,59.40
2019-01-18T05:18:51.433Z,61.50
2019-01-18T05:49:47.243Z,59.50
2019-01-18T06:19:46.816Z,60.60
2019-01-18T06:34:48.672Z,60.40
2019-01-18T06:38:54.369Z,60.20
2019-01-18T06:59:30.125Z,63.10
2019-01-18T07:03:50.685Z,65.10
2019-01-18T07:08:05.662Z,65.50
2019-01-18T07:12:11.391Z,65.40
2019-01-18T07:16:18.033Z,66.20
2019-01-18T07:20:23.978Z,65.80
2019-01-18T07:24:29.657Z,66.20
2019-01-18T07:28:35.356Z,64.80
2019-01-18T07:32:41.066Z,65.10
2019-01-18T07:36:46.785Z,64.60
2019-01-18T07:40:52.555Z,63.20
2019-01-18T07:44:58.224Z,63.50
2019-01-18T07:49:04.008Z,63.00
2019-01-18T07:53:09.820Z,62.70
2019-01-18T07:57:15.489Z,61.60
2019-01-18T08:01:22.252Z,61.80
2019-01-18T08:05:29.549Z,62.00
2019-01-18T08:09:35.229Z,64.60
2019-01-18T08:13:40.955Z,66.90
2019-01-18T08:17:46.775Z,68.50
2019-01-18T08:21:52.459Z,66.90
2019-01-18T08:25:58.150Z,67.80
2019-01-18T08:30:05.518Z,66.50
2019-01-18T08:34:11.206Z,65.30
2019-01-18T08:38:16.895Z,64.30
2019-01-18T08:42:22.653Z,64.80
2019-01-18T08:46:28.336Z,64.00
2019-01-18T08:50:34.164Z,62.90
2019-01-18T08:54:39.841Z,62.20
2019-01-18T08:58:45.512Z,62.20
2019-01-18T09:02:51.208Z,61.40
2019-01-18T09:06:56.893Z,60.90
2019-01-18T09:11:02.652Z,61.60
2019-01-18T09:15:11.822Z,61.30
2019-01-18T09:19:17.506Z,63.00
2019-01-18T09:23:23.189Z,64.30
2019-01-18T09:27:28.916Z,61.10
2019-01-18T09:31:34.745Z,59.60
2019-01-18T09:35:40.568Z,59.00
2019-01-18T09:39:46.291Z,59.80
2019-01-18T09:43:51.977Z,59.50
2019-01-18T09:47:57.742Z,59.60
2019-01-18T09:52:05.149Z,59.80
2019-01-18T09:56:10.780Z,60.60
2019-01-18T10:05:19.701Z,59.30
2019-01-18T10:09:25.392Z,59.70
2019-01-18T10:13:32.323Z,59.50
2019-01-18T10:17:38.015Z,58.60
2019-01-18T10:21:43.760Z,60.00
2019-01-18T10:25:49.427Z,62.80
2019-01-18T10:29:56.081Z,60.70
2019-01-18T10:34:03.431Z,60.50
2019-01-18T10:38:09.359Z,61.10
2019-01-18T10:42:15.056Z,62.00
2019-01-18T10:46:20.805Z,62.60
2019-01-18T10:50:32.298Z,61.40
2019-01-18T10:54:37.979Z,62.70
2019-01-18T10:58:43.661Z,62.00
2019-01-18T11:02:49.943Z,64.00
2019-01-18T11:06:55.618Z,59.70
2019-01-18T11:11:01.307Z,60.60
2019-01-18T11:15:11.395Z,60.80
2019-01-18T11:19:17.138Z,61.40
2019-01-18T11:23:22.799Z,54.80
2019-01-18T11:27:28.527Z,57.70
2019-01-18T11:31:34.191Z,63.10
2019-01-18T11:35:39.938Z,56.30
2019-01-18T11:39:45.701Z,59.60
2019-01-18T11:43:51.437Z,51.30
2019-01-18T11:47:57.209Z,50.80
2019-01-18T11:52:02.902Z,49.90
2019-01-18T11:56:08.658Z,50.80
2019-01-18T12:00:26.877Z,52.20
2019-01-18T12:04:32.598Z,57.00
2019-01-18T12:08:41.801Z,51.20
2019-01-18T12:12:45.730Z,50.40
2019-01-18T12:16:51.412Z,48.50
2019-01-18T12:20:57.093Z,55.00
2019-01-18T12:25:02.754Z,53.40
2019-01-18T12:29:08.658Z,50.30
2019-01-18T12:33:14.356Z,53.60
2019-01-18T12:37:20.048Z,52.20
2019-01-18T12:41:25.766Z,51.20
2019-01-18T12:45:49.202Z,48.10
2019-01-18T12:49:54.892Z,47.30
2019-01-18T12:54:00.572Z,46.60
2019-01-18T12:58:06.395Z,47.70
2019-01-18T13:02:12.166Z,49.30
2019-01-18T13:06:17.912Z,50.00
2019-01-18T13:10:23.622Z,53.00
2019-01-18T13:14:29.311Z,54.50
2019-01-18T13:18:35.069Z,57.10
2019-01-18T13:22:40.757Z,58.00
2019-01-18T13:26:46.488Z,60.30
2019-01-18T13:30:52.246Z,62.10
2019-01-18T13:34:57.937Z,62.30
2019-01-18T13:39:05.366Z,62.30
2019-01-18T13:43:11.006Z,63.80
2019-01-18T13:47:18.551Z,62.90
2019-01-18T13:51:24.068Z,61.80
2019-01-18T13:55:31.397Z,61.20
2019-01-18T13:59:37.073Z,60.60
2019-01-18T14:03:42.747Z,59.90
2019-01-18T14:07:53.258Z,59.30
2019-01-18T14:11:56.120Z,59.30
2019-01-18T14:16:01.943Z,55.60
2019-01-18T14:20:14.751Z,55.10
2019-01-18T14:24:20.433Z,55.60
2019-01-18T14:28:26.144Z,54.20
2019-01-18T14:32:32.188Z,51.70
2019-01-18T14:36:38.169Z,52.10
2019-01-18T14:40:43.898Z,50.90
2019-01-18T14:44:49.616Z,50.20
2019-01-18T14:48:55.262Z,50.30
2019-01-18T14:53:01.019Z,50.80
2019-01-18T14:57:07.703Z,51.10
2019-01-18T15:01:13.390Z,52.40
2019-01-18T15:05:19.203Z,53.40
2019-01-18T15:09:24.917Z,54.40
2019-01-18T15:13:30.679Z,53.20
2019-01-18T15:17:36.368Z,53.00
2019-01-18T15:21:42.044Z,51.90
2019-01-18T15:25:47.734Z,52.00
2019-01-18T15:29:53.412Z,53.10
2019-01-18T15:33:59.162Z,53.70
2019-01-18T15:38:06.382Z,53.70
2019-01-18T15:42:12.188Z,53.90
2019-01-18T15:46:17.897Z,54.30
2019-01-18T15:50:27.486Z,54.70
2019-01-18T15:54:33.180Z,55.10
2019-01-18T15:58:38.901Z,54.70
2019-01-18T16:02:44.626Z,54.60
2019-01-18T16:06:50.422Z,55.30
2019-01-18T16:10:56.078Z,55.10
2019-01-18T16:15:01.766Z,55.90
2019-01-18T16:19:08.393Z,55.20
2019-01-18T16:23:14.201Z,54.80
2019-01-18T16:27:19.887Z,55.20
2019-01-18T16:31:25.732Z,55.00
2019-01-18T16:35:31.473Z,56.00
2019-01-18T16:39:37.403Z,56.30
2019-01-18T16:43:43.084Z,55.80
2019-01-18T16:47:48.783Z,56.30
2019-01-18T16:51:54.475Z,56.40
2019-01-18T16:56:00.167Z,55.30
2019-01-18T17:00:29.285Z,55.60
2019-01-18T17:04:34.968Z,54.30
2019-01-18T17:08:40.653Z,54.60
2019-01-18T17:12:46.582Z,54.10
2019-01-18T17:16:52.281Z,55.80
2019-01-18T17:20:58.114Z,56.30
2019-01-18T17:25:03.850Z,57.50
2019-01-18T17:29:12.071Z,57.60
2019-01-18T17:33:17.896Z,56.50
2019-01-18T17:37:24.138Z,57.40
2019-01-18T17:41:58.128Z,57.50
2019-01-18T17:46:11.090Z,58.10
2019-01-18T17:50:55.318Z,57.90
2019-01-18T17:55:08.285Z,58.00
2019-01-18T17:59:42.369Z,58.00
2019-01-18T18:03:58.437Z,58.20
2019-01-18T18:08:23.193Z,58.30
2019-01-18T18:12:48.532Z,58.60
2019-01-18T18:17:07.923Z,58.90
2019-01-18T18:21:48.871Z,59.10
2019-01-18T18:26:04.694Z,58.00
2019-01-18T18:30:44.863Z,58.50
2019-01-18T18:35:17.701Z,58.30
2019-01-18T18:40:00.978Z,60.50
2019-01-18T18:44:45.328Z,61.30
2019-01-18T18:49:01.512Z,60.30
2019-01-18T18:53:43.321Z,61.30
2019-01-18T18:58:20.152Z,65.60
2019-01-18T19:02:57.510Z,62.60
2019-01-18T19:07:19.013Z,62.30
2019-01-18T19:11:40.934Z,61.60
2019-01-18T19:16:31.631Z,62.90
2019-01-18T19:21:13.177Z,64.30
2019-01-18T19:25:37.461Z,59.60
2019-01-18T19:30:13.086Z,60.50
2019-01-18T19:34:31.931Z,59.70
2019-01-18T19:38:45.126Z,59.00
2019-01-18T19:43:10.101Z,59.20
2019-01-18T19:47:26.088Z,58.70
2019-01-18T19:51:42.343Z,58.90
2019-01-18T19:55:58.305Z,58.90
2019-01-18T20:00:26.029Z,58.40
2019-01-18T20:04:53.632Z,58.00
2019-01-18T20:09:21.786Z,59.20
2019-01-18T20:14:00.416Z,61.30
2019-01-18T20:18:16.366Z,58.40
2019-01-18T20:22:45.561Z,58.50
2019-01-18T20:27:24.065Z,58.10
2019-01-18T20:31:47.136Z,60.50
2019-01-18T20:36:15.057Z,60.40
2019-01-18T20:40:34.447Z,58.30
2019-01-18T20:44:47.191Z,58.00
2019-01-18T20:49:22.526Z,57.90
2019-01-18T20:54:00.571Z,57.70
2019-01-18T20:58:33.302Z,57.30
2019-01-18T21:02:48.911Z,59.00
2019-01-18T21:07:19.287Z,61.00
2019-01-18T21:11:35.198Z,61.40
2019-01-18T21:16:01.367Z,61.90
2019-01-18T21:20:38.627Z,61.60
2019-01-18T21:24:51.594Z,61.80
2019-01-18T21:29:10.104Z,61.80
2019-01-18T21:33:44.240Z,61.40
2019-01-18T21:37:57.092Z,62.80
2019-01-18T21:42:27.913Z,62.60
2019-01-18T21:46:49.747Z,63.00
2019-01-18T21:51:41.800Z,61.20
2019-01-18T21:56:01.014Z,62.00
2019-01-18T22:00:36.916Z,62.40
2019-01-18T22:04:49.873Z,61.70
2019-01-18T22:09:08.886Z,60.10
2019-01-18T22:13:30.542Z,60.50
2019-01-18T22:17:52.576Z,58.50
2019-01-18T22:22:23.475Z,58.30
2019-01-18T22:26:45.118Z,58.20
2019-01-18T22:31:20.379Z,57.80
2019-01-18T22:35:42.418Z,57.80
2019-01-18T22:40:07.212Z,58.00
2019-01-18T22:44:21.652Z,58.00
2019-01-18T22:48:35.790Z,58.10
2019-01-18T22:52:57.850Z,58.50
2019-01-18T22:57:40.862Z,58.10
2019-01-18T23:02:03.092Z,58.50
2019-01-18T23:06:41.611Z,58.00
2019-01-18T23:11:03.422Z,58.30
2019-01-18T23:15:30.064Z,57.80
2019-01-18T23:19:45.970Z,57.60
2019-01-18T23:24:10.788Z,57.90
2019-01-18T23:28:32.729Z,59.10
2019-01-18T23:32:51.552Z,59.60
2019-01-18T23:37:24.206Z,59.90
2019-01-18T23:41:52.160Z,60.60
2019-01-18T23:46:04.989Z,62.20
2019-01-18T23:50:31.766Z,62.20
2019-01-18T23:54:56.740Z,63.60
2019-01-18T23:59:28.983Z,64.70
